Terminal Aerodrome Forecast
Issued by NWS

Home | Current Version | Previous Version | Text Only | Print | Product List | Glossary On
Versions: 1 2 3 4 5 6 7 8 9 10 11 12 13 14 15 16 17 18 19
000
FTUS41 KGYX 272320
TAFAUG
TAF
KAUG 272320Z 2800/2824 31005KT P6SM SCT030 BKN060
     FM280300 35004KT P6SM OVC035
     FM280600 26004KT P6SM OVC025
     FM281000 01012G21KT 4SM -SHSN BR OVC015
     FM281800 01014G21KT 2SM -SN BR OVC025
     FM282000 36012G21KT P6SM OVC025=

USA.gov is the U.S. government's official web portal to all federal, state and local government web resources and services.